createdAt,value
2022-12-07T00:00:26.239Z,100458.84
2022-12-07T00:03:27.849Z,100461.34
2022-12-07T00:06:29.702Z,100453.47
2022-12-07T00:09:32.357Z,100449.16
2022-12-07T00:12:34.044Z,100452.47
2022-12-07T00:15:36.702Z,100448.78
2022-12-07T00:18:39.043Z,100437.81
2022-12-07T00:21:41.673Z,100446.78
2022-12-07T00:24:43.401Z,100435.78
2022-12-07T00:27:45.091Z,100439.00
2022-12-07T00:30:46.616Z,100439.00
2022-12-07T00:33:48.652Z,100439.31
2022-12-07T00:36:50.524Z,100436.78
2022-12-07T00:39:52.101Z,100430.09
2022-12-07T00:42:53.852Z,100436.84
2022-12-07T00:45:57.579Z,100439.94
2022-12-07T00:48:59.447Z,100447.50
2022-12-07T00:52:01.220Z,100448.03
2022-12-07T00:55:03.034Z,100453.22
2022-12-07T00:58:05.267Z,100444.34
2022-12-07T01:01:08.569Z,100451.91
2022-12-07T01:04:10.477Z,100450.31
2022-12-07T01:07:12.120Z,100450.97
2022-12-07T01:10:15.047Z,100452.41
2022-12-07T01:13:17.345Z,100455.94
2022-12-07T01:16:20.810Z,100451.66
2022-12-07T01:19:22.699Z,100458.72
2022-12-07T01:22:25.406Z,100462.78
2022-12-07T01:25:27.072Z,100459.31
2022-12-07T01:28:29.290Z,100464.16
2022-12-07T01:31:31.161Z,100461.59
2022-12-07T01:34:32.984Z,100471.59
2022-12-07T01:37:40.252Z,100467.16
2022-12-07T01:40:41.953Z,100473.69
2022-12-07T01:44:22.497Z,100473.84
2022-12-07T01:47:24.272Z,100461.81
2022-12-07T01:50:29.282Z,100463.53
2022-12-07T01:53:32.935Z,100468.44
2022-12-07T01:56:34.891Z,100466.69
2022-12-07T01:59:37.242Z,100460.66
2022-12-07T02:02:47.542Z,100465.78
2022-12-07T02:05:50.974Z,100457.13
2022-12-07T02:08:53.471Z,100463.69
2022-12-07T02:11:56.560Z,100450.59
2022-12-07T02:14:58.453Z,100452.78
2022-12-07T02:18:07.028Z,100454.75
2022-12-07T02:21:33.433Z,100448.97
2022-12-07T02:24:49.606Z,100449.84
2022-12-07T02:28:28.422Z,100448.75
2022-12-07T02:31:33.573Z,100452.25
2022-12-07T02:34:51.182Z,100443.25
2022-12-07T02:38:03.300Z,100440.69
2022-12-07T02:41:16.943Z,100432.22
2022-12-07T02:44:24.457Z,100442.25
2022-12-07T02:47:27.573Z,100451.56
2022-12-07T02:50:29.590Z,100452.25
2022-12-07T02:53:38.769Z,100450.69
2022-12-07T02:57:05.179Z,100446.53
2022-12-07T03:00:17.068Z,100443.91
2022-12-07T03:03:19.513Z,100449.78
2022-12-07T03:06:28.547Z,100447.63
2022-12-07T03:09:39.176Z,100448.66
2022-12-07T03:12:54.481Z,100441.50
2022-12-07T03:16:15.339Z,100451.72
2022-12-07T03:19:21.019Z,100450.47
2022-12-07T03:22:24.210Z,100451.72
2022-12-07T03:25:26.933Z,100449.28
2022-12-07T03:28:35.702Z,100445.41
2022-12-07T03:31:47.711Z,100438.13
2022-12-07T03:34:57.354Z,100442.38
2022-12-07T03:38:20.083Z,100437.50
2022-12-07T03:41:45.019Z,100443.06
2022-12-07T03:44:47.951Z,100436.16
2022-12-07T03:48:12.239Z,100440.50
2022-12-07T03:51:45.783Z,100434.94
2022-12-07T03:54:47.379Z,100435.81
2022-12-07T03:57:52.998Z,100448.94
2022-12-07T04:00:54.564Z,100443.16
2022-12-07T04:03:56.288Z,100452.13
2022-12-07T04:06:58.112Z,100451.16
2022-12-07T04:09:59.843Z,100455.13
2022-12-07T04:13:01.861Z,100454.03
2022-12-07T04:16:03.809Z,100452.91
2022-12-07T04:19:05.645Z,100456.44
2022-12-07T04:22:07.906Z,100450.41
2022-12-07T04:25:10.084Z,100449.53
2022-12-07T04:28:11.779Z,100444.34
2022-12-07T04:31:13.405Z,100436.59
2022-12-07T04:34:16.431Z,100429.84
2022-12-07T04:37:18.466Z,100424.94
2022-12-07T04:40:20.186Z,100427.56
2022-12-07T04:43:21.803Z,100432.41
2022-12-07T04:46:25.255Z,100426.38
2022-12-07T04:49:27.257Z,100431.50
2022-12-07T04:52:28.909Z,100420.06
2022-12-07T04:55:30.552Z,100418.09
2022-12-07T04:58:32.305Z,100409.09
2022-12-07T05:01:34.897Z,100413.34
2022-12-07T05:04:36.630Z,100410.63
2022-12-07T05:07:38.363Z,100408.75
2022-12-07T05:10:40.049Z,100416.28
2022-12-07T05:13:41.762Z,100401.72
2022-12-07T05:16:46.364Z,100422.00
2022-12-07T05:19:48.112Z,100400.00
2022-12-07T05:22:49.849Z,100403.66
2022-12-07T05:25:51.663Z,100397.94
2022-12-07T05:28:57.305Z,100402.59
2022-12-07T05:31:59.064Z,100401.78
2022-12-07T05:35:00.898Z,100403.34
2022-12-07T05:38:02.521Z,100405.91
2022-12-07T05:41:06.321Z,100403.06
2022-12-07T05:44:08.154Z,100400.06
2022-12-07T05:47:10.312Z,100391.50
2022-12-07T05:50:12.078Z,100402.06
2022-12-07T05:53:16.418Z,100390.44
2022-12-07T05:56:23.766Z,100397.28
2022-12-07T05:59:26.108Z,100401.19
2022-12-07T06:02:27.927Z,100400.22
2022-12-07T06:05:29.899Z,100391.78
2022-12-07T06:08:32.920Z,100403.34
2022-12-07T06:11:53.176Z,100393.59
2022-12-07T06:14:55.128Z,100403.16
2022-12-07T06:17:56.910Z,100405.47
2022-12-07T06:20:58.720Z,100402.16
2022-12-07T06:24:00.488Z,100402.38
2022-12-07T06:27:02.351Z,100407.66
2022-12-07T06:30:07.677Z,100412.75
2022-12-07T06:33:09.590Z,100403.56
2022-12-07T06:36:11.580Z,100410.31
2022-12-07T06:39:13.256Z,100407.72
2022-12-07T06:42:15.027Z,100410.47
2022-12-07T06:45:16.738Z,100412.44
2022-12-07T06:48:18.659Z,100411.00
2022-12-07T06:51:20.400Z,100416.88
2022-12-07T06:54:22.120Z,100428.25
2022-12-07T06:57:23.726Z,100413.44
2022-12-07T07:00:25.666Z,100420.69
2022-12-07T07:03:27.447Z,100416.81
2022-12-07T07:06:29.429Z,100422.28
2022-12-07T07:09:31.328Z,100429.72
2022-12-07T07:12:33.328Z,100426.84
2022-12-07T07:15:36.133Z,100434.63
2022-12-07T07:18:38.179Z,100431.94
2022-12-07T07:21:39.883Z,100439.59
2022-12-07T07:24:42.028Z,100440.72
2022-12-07T07:27:44.061Z,100446.78
2022-12-07T07:30:46.189Z,100447.25
2022-12-07T07:33:48.155Z,100449.94
2022-12-07T07:36:50.008Z,100453.47
2022-12-07T07:39:51.737Z,100451.25
2022-12-07T07:42:54.923Z,100458.50
2022-12-07T07:45:56.840Z,100449.13
2022-12-07T07:48:58.888Z,100454.34
2022-12-07T07:52:00.763Z,100457.34
2022-12-07T07:55:02.561Z,100452.75
2022-12-07T07:58:04.698Z,100455.66
2022-12-07T08:01:12.464Z,100462.16
2022-12-07T08:04:14.297Z,100461.00
2022-12-07T08:07:16.673Z,100469.81
2022-12-07T08:10:18.410Z,100475.13
2022-12-07T08:13:20.203Z,100471.03
2022-12-07T08:16:22.132Z,100460.53
2022-12-07T08:19:24.469Z,100456.25
2022-12-07T08:22:26.349Z,100445.00
2022-12-07T08:25:28.853Z,100443.28
2022-12-07T08:28:31.528Z,100448.78
2022-12-07T08:31:33.846Z,100446.66
2022-12-07T08:34:35.819Z,100437.16
2022-12-07T08:37:37.951Z,100426.22
2022-12-07T08:40:42.918Z,100423.28
2022-12-07T08:43:44.748Z,100419.63
2022-12-07T08:46:55.436Z,100418.56
2022-12-07T08:49:57.247Z,100422.53
2022-12-07T08:53:00.336Z,100427.75
2022-12-07T08:56:02.447Z,100427.53
2022-12-07T08:59:05.574Z,100425.47
2022-12-07T09:02:10.379Z,100421.28
2022-12-07T09:05:18.622Z,100417.66
2022-12-07T09:08:21.734Z,100417.50
2022-12-07T09:11:28.385Z,100420.13
2022-12-07T09:14:30.775Z,100431.13
2022-12-07T09:17:36.966Z,100414.84
2022-12-07T09:20:41.449Z,100420.34
2022-12-07T09:23:44.307Z,100411.50
2022-12-07T09:26:46.185Z,100402.34
2022-12-07T09:29:48.239Z,100408.56
2022-12-07T09:32:50.009Z,100418.66
2022-12-07T09:35:54.127Z,100409.84
2022-12-07T09:38:56.832Z,100406.09
2022-12-07T09:42:00.090Z,100407.50
2022-12-07T09:45:03.058Z,100410.88
2022-12-07T09:48:05.580Z,100403.59
2022-12-07T09:51:25.333Z,100402.25
2022-12-07T09:54:27.687Z,100396.47
2022-12-07T09:57:32.952Z,100403.91
2022-12-07T10:00:34.792Z,100403.06
2022-12-07T10:03:39.858Z,100408.47
2022-12-07T10:06:47.019Z,100403.88
2022-12-07T10:09:49.730Z,100406.94
2022-12-07T10:13:07.434Z,100399.78
2022-12-07T10:16:40.491Z,100400.44
2022-12-07T10:19:42.907Z,100400.72
2022-12-07T10:23:05.931Z,100387.00
2022-12-07T10:26:30.194Z,100382.81
2022-12-07T10:29:35.592Z,100385.72
2022-12-07T10:32:37.778Z,100388.09
2022-12-07T10:35:47.645Z,100381.34
2022-12-07T10:38:53.218Z,100377.34
2022-12-07T10:42:03.198Z,100374.06
2022-12-07T10:45:13.524Z,100375.72
2022-12-07T10:48:34.184Z,100374.72
2022-12-07T10:51:47.976Z,100366.31
2022-12-07T10:55:21.369Z,100375.91
2022-12-07T10:58:53.511Z,100363.91
2022-12-07T11:02:22.368Z,100353.44
2022-12-07T11:05:27.557Z,100366.13
2022-12-07T11:08:36.030Z,100353.47
2022-12-07T11:11:49.024Z,100344.41
2022-12-07T11:15:05.992Z,100353.59
2022-12-07T11:18:29.025Z,100350.53
2022-12-07T11:21:51.927Z,100353.75
2022-12-07T11:25:03.608Z,100344.69
2022-12-07T11:28:26.266Z,100335.50
2022-12-07T11:32:01.796Z,100347.66
2022-12-07T11:35:15.887Z,100351.34
2022-12-07T11:38:26.343Z,100357.03
2022-12-07T11:41:35.530Z,100362.09
2022-12-07T11:45:16.469Z,100355.16
2022-12-07T11:48:34.839Z,100353.31
2022-12-07T11:51:39.768Z,100352.78
2022-12-07T11:54:46.886Z,100344.00
2022-12-07T11:57:57.757Z,100331.38
2022-12-07T12:01:37.672Z,100309.00
2022-12-07T12:04:48.097Z,100306.34
2022-12-07T12:11:52.228Z,100295.25
2022-12-07T12:15:27.898Z,100297.41
2022-12-07T12:18:54.366Z,100288.16
2022-12-07T12:22:02.647Z,100290.97
2022-12-07T12:25:08.057Z,100287.56
2022-12-07T12:28:26.153Z,100284.84
2022-12-07T12:31:28.806Z,100287.56
2022-12-07T12:34:34.336Z,100285.50
2022-12-07T12:37:36.316Z,100278.63
2022-12-07T12:40:50.477Z,100284.31
2022-12-07T12:43:53.868Z,100276.88
2022-12-07T12:46:57.078Z,100269.88
2022-12-07T12:50:19.099Z,100264.44
2022-12-07T12:53:30.210Z,100263.50
2022-12-07T12:57:11.387Z,100255.25
2022-12-07T13:00:24.958Z,100260.13
2022-12-07T13:03:30.149Z,100260.44
2022-12-07T13:06:36.630Z,100254.16
2022-12-07T13:09:44.274Z,100256.38
2022-12-07T13:12:58.016Z,100257.00
2022-12-07T13:16:12.451Z,100254.94
2022-12-07T13:19:42.171Z,100243.75
2022-12-07T13:22:47.987Z,100247.75
2022-12-07T13:26:00.871Z,100244.00
2022-12-07T13:29:11.422Z,100242.53
2022-12-07T13:32:26.147Z,100247.91
2022-12-07T13:35:38.998Z,100244.03
2022-12-07T13:38:51.519Z,100232.50
2022-12-07T13:41:55.462Z,100230.03
2022-12-07T13:45:00.738Z,100234.66
2022-12-07T13:48:04.256Z,100239.78
2022-12-07T13:51:05.896Z,100240.03
2022-12-07T13:54:12.017Z,100235.09
2022-12-07T13:57:13.871Z,100229.31
2022-12-07T14:00:22.427Z,100225.19
2022-12-07T14:03:34.884Z,100224.44
2022-12-07T14:06:36.647Z,100219.91
2022-12-07T14:09:38.531Z,100220.16
2022-12-07T14:12:43.859Z,100221.81
2022-12-07T14:15:51.950Z,100221.63
2022-12-07T14:18:53.865Z,100220.41
2022-12-07T14:22:21.799Z,100224.78
2022-12-07T14:25:26.603Z,100233.03
2022-12-07T14:28:31.910Z,100219.75
2022-12-07T14:31:33.846Z,100218.63
2022-12-07T14:34:35.562Z,100220.84
2022-12-07T14:37:38.518Z,100216.88
2022-12-07T14:40:40.358Z,100218.84
2022-12-07T14:44:00.011Z,100220.00
2022-12-07T14:50:24.009Z,100225.66
2022-12-07T14:53:31.465Z,100234.25
2022-12-07T14:56:33.430Z,100227.50
2022-12-07T14:59:38.022Z,100226.06
2022-12-07T15:02:41.408Z,100237.09
2022-12-07T15:05:43.246Z,100239.06
2022-12-07T15:08:45.706Z,100246.19
2022-12-07T15:11:47.435Z,100240.38
2022-12-07T15:14:52.223Z,100249.66
2022-12-07T15:17:54.799Z,100243.75
2022-12-07T15:20:57.837Z,100239.84
2022-12-07T15:23:59.523Z,100245.00
2022-12-07T15:27:01.719Z,100251.50
2022-12-07T15:30:05.048Z,100249.69
2022-12-07T15:33:06.822Z,100247.19
2022-12-07T15:36:09.044Z,100250.38
2022-12-07T15:39:15.055Z,100250.22
2022-12-07T15:42:17.258Z,100241.88
2022-12-07T15:45:19.386Z,100241.72
2022-12-07T15:48:29.466Z,100235.78
2022-12-07T15:51:31.990Z,100240.03
2022-12-07T15:54:33.961Z,100241.66
2022-12-07T15:57:38.219Z,100240.09
2022-12-07T16:00:40.037Z,100240.25
2022-12-07T16:03:42.241Z,100243.09
2022-12-07T16:06:44.183Z,100239.31
2022-12-07T16:09:48.477Z,100246.72
2022-12-07T16:12:50.354Z,100251.22
2022-12-07T16:15:52.132Z,100240.31
2022-12-07T16:18:55.036Z,100243.34
2022-12-07T16:21:56.848Z,100240.63
2022-12-07T16:24:59.006Z,100238.50
2022-12-07T16:28:00.747Z,100234.38
2022-12-07T16:31:08.039Z,100244.97
2022-12-07T16:34:10.369Z,100231.38
2022-12-07T16:37:12.167Z,100235.72
2022-12-07T16:40:14.102Z,100236.47
2022-12-07T16:43:15.872Z,100240.28
2022-12-07T16:46:20.810Z,100225.16
2022-12-07T16:49:22.666Z,100219.25
2022-12-07T16:52:24.449Z,100220.16
2022-12-07T16:55:26.246Z,100207.63
2022-12-07T16:58:28.560Z,100208.56
2022-12-07T17:01:30.511Z,100203.63
2022-12-07T17:04:32.318Z,100191.72
2022-12-07T17:07:33.990Z,100191.47
2022-12-07T17:10:37.790Z,100186.38
2022-12-07T17:13:58.638Z,100195.84
2022-12-07T17:17:03.279Z,100197.38
2022-12-07T17:20:05.641Z,100205.25
2022-12-07T17:23:07.749Z,100208.84
2022-12-07T17:26:13.903Z,100211.03
2022-12-07T17:29:18.069Z,100221.28
2022-12-07T17:32:19.821Z,100220.78
2022-12-07T17:35:21.690Z,100230.00
2022-12-07T17:38:23.418Z,100236.84
2022-12-07T17:41:46.339Z,100235.53
2022-12-07T17:44:48.526Z,100241.53
2022-12-07T17:47:50.506Z,100239.84
2022-12-07T17:51:11.501Z,100231.75
2022-12-07T17:54:13.472Z,100245.88
2022-12-07T17:57:15.418Z,100244.59
2022-12-07T18:00:17.873Z,100230.69
2022-12-07T18:03:19.850Z,100223.63
2022-12-07T18:06:21.606Z,100216.94
2022-12-07T18:09:23.758Z,100201.81
2022-12-07T18:12:25.613Z,100189.66
2022-12-07T18:15:27.408Z,100197.16
2022-12-07T18:18:29.137Z,100185.13
2022-12-07T18:21:31.636Z,100190.09
2022-12-07T18:24:37.072Z,100197.75
2022-12-07T18:27:38.983Z,100195.09
2022-12-07T18:31:13.105Z,100201.34
2022-12-07T18:34:12.304Z,100206.91
2022-12-07T18:37:13.983Z,100216.19
2022-12-07T18:40:15.914Z,100223.63
2022-12-07T18:43:19.067Z,100212.22
2022-12-07T18:46:21.831Z,100217.78
2022-12-07T18:49:23.725Z,100203.66
2022-12-07T18:52:25.515Z,100196.88
2022-12-07T18:55:28.351Z,100192.56
2022-12-07T18:58:30.779Z,100183.94
2022-12-07T19:01:32.686Z,100181.78
2022-12-07T19:04:34.493Z,100191.69
2022-12-07T19:07:36.873Z,100174.97
2022-12-07T19:10:39.465Z,100162.78
2022-12-07T19:13:41.027Z,100159.88
2022-12-07T19:16:44.001Z,100163.19
2022-12-07T19:19:47.084Z,100166.28
2022-12-07T19:22:48.851Z,100158.75
2022-12-07T19:25:50.665Z,100160.81
2022-12-07T19:28:52.519Z,100160.06
2022-12-07T19:31:54.355Z,100164.25
2022-12-07T19:34:56.194Z,100150.41
2022-12-07T19:37:57.825Z,100159.06
2022-12-07T19:41:30.587Z,100141.03
2022-12-07T19:44:34.590Z,100147.13
2022-12-07T19:47:36.387Z,100143.06
2022-12-07T19:50:38.209Z,100152.91
2022-12-07T19:53:39.876Z,100150.81
2022-12-07T19:56:42.793Z,100144.91
2022-12-07T19:59:46.185Z,100140.25
2022-12-07T20:02:51.972Z,100134.97
2022-12-07T20:05:53.689Z,100142.88
2022-12-07T20:08:56.137Z,100143.63
2022-12-07T20:12:16.282Z,100141.16
2022-12-07T20:15:18.024Z,100129.69
2022-12-07T20:18:19.638Z,100134.63
2022-12-07T20:21:21.717Z,100120.78
2022-12-07T20:24:25.540Z,100120.97
2022-12-07T20:27:27.368Z,100106.28
2022-12-07T20:30:29.238Z,100113.56
2022-12-07T20:33:31.624Z,100107.56
2022-12-07T20:36:33.630Z,100103.34
2022-12-07T20:39:35.457Z,100095.91
2022-12-07T20:42:37.399Z,100088.25
2022-12-07T20:45:46.958Z,100095.50
2022-12-07T20:48:48.887Z,100087.72
2022-12-07T20:51:52.949Z,100084.72
2022-12-07T20:54:57.439Z,100082.09
2022-12-07T20:57:59.355Z,100083.72
2022-12-07T21:01:02.438Z,100086.22
2022-12-07T21:04:04.630Z,100078.47
2022-12-07T21:07:06.612Z,100068.91
2022-12-07T21:10:08.739Z,100073.78
2022-12-07T21:13:10.498Z,100073.19
2022-12-07T21:16:23.473Z,100079.81
2022-12-07T21:19:25.294Z,100080.75
2022-12-07T21:22:27.028Z,100090.56
2022-12-07T21:25:28.728Z,100090.72
2022-12-07T21:28:30.614Z,100089.00
2022-12-07T21:31:33.269Z,100098.69
2022-12-07T21:34:35.933Z,100091.13
2022-12-07T21:37:37.739Z,100095.31
2022-12-07T21:40:40.693Z,100090.56
2022-12-07T21:43:43.746Z,100083.06
2022-12-07T21:46:45.508Z,100076.06
2022-12-07T21:49:47.320Z,100065.44
2022-12-07T21:52:49.084Z,100059.50
2022-12-07T21:55:50.768Z,100041.78
2022-12-07T21:58:54.601Z,100047.56
2022-12-07T22:01:56.475Z,100027.72
2022-12-07T22:04:58.324Z,100030.66
2022-12-07T22:08:00.230Z,100026.72
2022-12-07T22:11:02.188Z,100031.75
2022-12-07T22:14:23.888Z,100033.63
2022-12-07T22:17:25.456Z,100037.59
2022-12-07T22:20:27.081Z,100033.31
2022-12-07T22:23:28.676Z,100016.34
2022-12-07T22:26:30.308Z,100014.34
2022-12-07T22:29:32.099Z,100022.59
2022-12-07T22:32:49.693Z,100019.63
2022-12-07T22:35:57.409Z,100023.69
2022-12-07T22:39:00.791Z,100021.94
2022-12-07T22:42:02.395Z,100027.13
2022-12-07T22:45:04.583Z,100036.59
2022-12-07T22:48:07.550Z,100037.25
2022-12-07T22:51:33.255Z,100032.97
2022-12-07T22:54:35.693Z,100033.47
2022-12-07T22:57:37.465Z,100031.16
2022-12-07T23:00:39.425Z,100029.50
2022-12-07T23:03:41.771Z,100034.13
2022-12-07T23:06:44.724Z,100044.88
2022-12-07T23:09:46.436Z,100048.28
2022-12-07T23:13:07.015Z,100030.41
2022-12-07T23:16:14.765Z,100036.25
2022-12-07T23:19:17.155Z,100039.66
2022-12-07T23:22:18.868Z,100030.91
2022-12-07T23:25:20.489Z,100029.34
2022-12-07T23:28:22.245Z,100026.38
2022-12-07T23:31:25.132Z,100015.34
2022-12-07T23:34:26.891Z,100022.47
2022-12-07T23:37:28.479Z,100015.56
2022-12-07T23:40:30.288Z,99991.78
2022-12-07T23:43:32.033Z,99990.78
2022-12-07T23:46:34.701Z,99991.19
2022-12-07T23:49:36.413Z,99980.75
2022-12-07T23:52:38.032Z,99972.97
2022-12-07T23:55:45.673Z,99972.59
2022-12-07T23:58:48.568Z,99960.22
